createdAt,value
2019-02-23T00:02:28.070Z,103154.05
2019-02-23T00:04:57.641Z,103150.98
2019-02-23T00:07:28.440Z,103151.44
2019-02-23T00:09:57.982Z,103143.16
2019-02-23T00:12:27.541Z,103147.01
2019-02-23T00:14:57.319Z,103139.64
2019-02-23T00:17:27.479Z,103137.88
2019-02-23T00:19:58.795Z,103137.00
2019-02-23T00:22:28.611Z,103137.38
2019-02-23T00:24:58.180Z,103146.34
2019-02-23T00:27:29.335Z,103141.94
2019-02-23T00:29:59.176Z,103146.70
2019-02-23T00:32:28.762Z,103144.53
2019-02-23T00:34:58.303Z,103146.71
2019-02-23T00:37:27.853Z,103150.14
2019-02-23T00:39:57.496Z,103140.64
2019-02-23T00:42:27.315Z,103139.76
2019-02-23T00:44:56.876Z,103139.25
2019-02-23T00:47:26.677Z,103146.98
2019-02-23T00:49:56.191Z,103145.14
2019-02-23T00:52:25.777Z,103142.41
2019-02-23T00:54:55.318Z,103149.72
2019-02-23T00:57:24.867Z,103147.03
2019-02-23T00:59:54.459Z,103149.98
2019-02-23T01:02:24.014Z,103153.84
2019-02-23T01:04:53.589Z,103160.36
2019-02-23T01:07:23.152Z,103157.66
2019-02-23T01:09:52.695Z,103159.73
2019-02-23T01:12:22.236Z,103153.77
2019-02-23T01:14:51.781Z,103163.67
2019-02-23T01:17:21.328Z,103160.11
2019-02-23T01:19:50.893Z,103156.62
2019-02-23T01:22:20.441Z,103162.23
2019-02-23T01:24:50.017Z,103163.92
2019-02-23T01:27:19.654Z,103157.03
2019-02-23T01:29:49.189Z,103156.56
2019-02-23T01:32:18.719Z,103154.33
2019-02-23T01:34:48.292Z,103150.86
2019-02-23T01:37:17.901Z,103152.99
2019-02-23T01:39:47.446Z,103156.81
2019-02-23T01:42:17.263Z,103159.34
2019-02-23T01:44:46.812Z,103152.81
2019-02-23T01:47:16.391Z,103150.17
2019-02-23T01:49:45.943Z,103143.70
2019-02-23T01:52:15.501Z,103146.70
2019-02-23T01:54:45.040Z,103148.52
2019-02-23T01:57:14.573Z,103144.16
2019-02-23T01:59:46.359Z,103147.63
2019-02-23T02:02:16.048Z,103144.98
2019-02-23T02:04:45.659Z,103137.16
2019-02-23T02:07:15.309Z,103122.91
2019-02-23T02:09:45.440Z,103126.75
2019-02-23T02:12:16.281Z,103122.92
2019-02-23T02:14:45.820Z,103116.03
2019-02-23T02:17:15.569Z,103122.50
2019-02-23T02:19:45.119Z,103108.20
2019-02-23T02:22:14.697Z,103110.37
2019-02-23T02:24:44.285Z,103109.03
2019-02-23T02:27:13.841Z,103113.27
2019-02-23T02:29:43.394Z,103114.91
2019-02-23T02:32:12.972Z,103111.44
2019-02-23T02:34:42.506Z,103102.69
2019-02-23T02:37:12.297Z,103096.61
2019-02-23T02:39:41.943Z,103088.44
2019-02-23T02:42:11.486Z,103088.08
2019-02-23T02:44:41.037Z,103086.48
2019-02-23T02:47:10.579Z,103084.00
2019-02-23T02:49:40.132Z,103078.45
2019-02-23T02:52:09.699Z,103080.64
2019-02-23T02:54:39.271Z,103078.98
2019-02-23T02:57:08.838Z,103079.85
2019-02-23T02:59:38.618Z,103076.38
2019-02-23T03:02:08.196Z,103073.16
2019-02-23T03:04:37.763Z,103076.89
2019-02-23T03:07:07.353Z,103068.55
2019-02-23T03:09:37.158Z,103068.42
2019-02-23T03:12:06.686Z,103062.62
2019-02-23T03:14:36.317Z,103062.62
2019-02-23T03:17:05.930Z,103060.08
2019-02-23T03:19:35.485Z,103060.48
2019-02-23T03:22:05.012Z,103060.49
2019-02-23T03:24:34.593Z,103052.24
2019-02-23T03:27:04.126Z,103052.19
2019-02-23T03:29:33.678Z,103056.38
2019-02-23T03:32:03.207Z,103056.65
2019-02-23T03:34:32.804Z,103055.83
2019-02-23T03:37:02.343Z,103050.61
2019-02-23T03:39:31.893Z,103053.60
2019-02-23T03:42:01.446Z,103054.48
2019-02-23T03:44:31.239Z,103050.66
2019-02-23T03:47:00.804Z,103056.79
2019-02-23T03:49:30.378Z,103060.73
2019-02-23T03:51:59.899Z,103064.16
2019-02-23T03:54:29.520Z,103059.32
2019-02-23T03:56:59.054Z,103057.08
2019-02-23T03:59:30.747Z,103068.32
2019-02-23T04:02:00.273Z,103063.91
2019-02-23T04:04:29.816Z,103058.24
2019-02-23T04:06:59.392Z,103068.53
2019-02-23T04:09:28.937Z,103064.53
2019-02-23T04:11:58.472Z,103066.17
2019-02-23T04:14:28.018Z,103070.45
2019-02-23T04:16:57.596Z,103079.38
2019-02-23T04:19:28.159Z,103088.29
2019-02-23T04:21:57.740Z,103089.92
2019-02-23T04:24:27.281Z,103093.27
2019-02-23T04:26:56.860Z,103096.95
2019-02-23T04:29:26.430Z,103099.03
2019-02-23T04:31:56.017Z,103103.26
2019-02-23T04:34:25.537Z,103110.09
2019-02-23T04:36:55.093Z,103111.82
2019-02-23T04:39:24.649Z,103110.67
2019-02-23T04:41:54.189Z,103112.42
2019-02-23T04:44:24.065Z,103129.50
2019-02-23T04:46:53.567Z,103133.80
2019-02-23T04:49:25.789Z,103135.41
2019-02-23T04:51:54.387Z,103131.13
2019-02-23T04:54:23.920Z,103135.81
2019-02-23T04:56:53.482Z,103134.14
2019-02-23T04:59:23.014Z,103133.04
2019-02-23T05:01:52.588Z,103137.41
2019-02-23T05:04:22.168Z,103145.17
2019-02-23T05:06:51.712Z,103136.98
2019-02-23T05:09:21.262Z,103134.44
2019-02-23T05:11:51.800Z,103138.83
2019-02-23T05:14:21.354Z,103135.80
2019-02-23T05:16:50.943Z,103139.74
2019-02-23T05:19:20.515Z,103135.50
2019-02-23T05:21:50.055Z,103140.67
2019-02-23T05:24:19.681Z,103138.03
2019-02-23T05:26:49.188Z,103140.12
2019-02-23T05:29:18.755Z,103140.12
2019-02-23T05:31:48.292Z,103139.67
2019-02-23T05:34:17.879Z,103145.24
2019-02-23T05:36:47.394Z,103143.93
2019-02-23T05:39:17.889Z,103152.59
2019-02-23T05:41:47.463Z,103151.56
2019-02-23T05:44:17.028Z,103149.09
2019-02-23T05:46:46.578Z,103155.07
2019-02-23T05:49:16.113Z,103149.47
2019-02-23T05:51:45.698Z,103152.47
2019-02-23T05:54:15.233Z,103154.58
2019-02-23T05:56:44.781Z,103160.62
2019-02-23T05:59:14.338Z,103160.93
2019-02-23T06:01:44.132Z,103180.65
2019-02-23T06:04:14.570Z,103178.50
2019-02-23T06:06:44.121Z,103184.78
2019-02-23T06:09:13.653Z,103186.86
2019-02-23T06:11:43.212Z,103188.09
2019-02-23T06:14:12.742Z,103188.59
2019-02-23T06:16:42.302Z,103187.84
2019-02-23T06:19:11.864Z,103191.66
2019-02-23T06:21:52.938Z,103189.94
2019-02-23T06:24:12.971Z,103194.30
2019-02-23T06:26:42.600Z,103191.25
2019-02-23T06:29:12.127Z,103196.78
2019-02-23T06:31:41.808Z,103201.66
2019-02-23T06:34:16.295Z,103205.09
2019-02-23T06:36:42.682Z,103192.98
2019-02-23T06:39:12.266Z,103198.02
2019-02-23T06:41:41.811Z,103198.81
2019-02-23T06:44:11.382Z,103202.48
2019-02-23T06:46:40.942Z,103204.05
2019-02-23T06:49:10.526Z,103207.42
2019-02-23T06:51:41.499Z,103202.31
2019-02-23T06:54:11.169Z,103203.33
2019-02-23T06:56:43.168Z,103204.29
2019-02-23T06:59:13.396Z,103200.03
2019-02-23T07:01:43.276Z,103200.83
2019-02-23T07:04:13.156Z,103203.36
2019-02-23T07:06:43.711Z,103208.50
2019-02-23T07:09:13.731Z,103205.62
2019-02-23T07:11:43.336Z,103205.23
2019-02-23T07:14:12.869Z,103206.22
2019-02-23T07:16:42.420Z,103201.68
2019-02-23T07:19:11.974Z,103197.89
2019-02-23T07:21:41.565Z,103196.64
2019-02-23T07:24:11.104Z,103204.84
2019-02-23T07:26:45.145Z,103205.17
2019-02-23T07:29:14.675Z,103209.43
2019-02-23T07:31:46.600Z,103198.66
2019-02-23T07:34:18.943Z,103209.56
2019-02-23T07:36:48.487Z,103204.45
2019-02-23T07:39:18.028Z,103197.77
2019-02-23T07:41:47.584Z,103197.51
2019-02-23T07:44:17.177Z,103187.77
2019-02-23T07:46:47.420Z,103186.25
2019-02-23T07:49:17.956Z,103188.11
2019-02-23T07:51:47.508Z,103190.91
2019-02-23T07:54:18.695Z,103192.86
2019-02-23T07:56:48.213Z,103196.05
2019-02-23T07:59:19.703Z,103190.09
2019-02-23T08:01:50.624Z,103192.83
2019-02-23T08:04:20.177Z,103190.38
2019-02-23T08:06:49.728Z,103200.39
2019-02-23T08:09:19.301Z,103201.78
2019-02-23T08:11:48.928Z,103202.30
2019-02-23T08:14:19.746Z,103199.74
2019-02-23T08:16:49.330Z,103196.79
2019-02-23T08:19:18.856Z,103196.48
2019-02-23T08:21:48.385Z,103204.84
2019-02-23T08:24:18.875Z,103206.15
2019-02-23T08:26:52.519Z,103208.34
2019-02-23T08:29:21.833Z,103211.80
2019-02-23T08:31:53.215Z,103218.83
2019-02-23T08:34:24.162Z,103216.83
2019-02-23T08:36:56.484Z,103217.05
2019-02-23T08:39:28.063Z,103220.17
2019-02-23T08:41:58.446Z,103216.36
2019-02-23T08:44:28.009Z,103212.06
2019-02-23T08:46:57.587Z,103210.89
2019-02-23T08:49:30.253Z,103213.20
2019-02-23T08:52:01.801Z,103209.91
2019-02-23T08:54:33.205Z,103206.50
2019-02-23T08:57:03.206Z,103201.09
2019-02-23T08:59:34.090Z,103207.75
2019-02-23T09:02:03.972Z,103200.50
2019-02-23T09:04:34.517Z,103206.64
2019-02-23T09:07:04.334Z,103208.51
2019-02-23T09:09:34.361Z,103222.47
2019-02-23T09:12:04.571Z,103222.98
2019-02-23T09:14:34.648Z,103219.73
2019-02-23T09:17:04.714Z,103220.72
2019-02-23T09:19:34.525Z,103223.41
2019-02-23T09:22:06.551Z,103212.30
2019-02-23T09:24:39.184Z,103195.53
2019-02-23T09:27:09.534Z,103199.56
2019-02-23T09:29:39.630Z,103198.32
2019-02-23T09:32:10.397Z,103188.99
2019-02-23T09:34:39.933Z,103187.78
2019-02-23T09:37:09.486Z,103188.37
2019-02-23T09:39:42.416Z,103189.79
2019-02-23T09:42:12.717Z,103190.82
2019-02-23T09:44:42.259Z,103189.25
2019-02-23T09:47:12.292Z,103180.72
2019-02-23T09:49:41.839Z,103179.93
2019-02-23T09:52:11.389Z,103180.48
2019-02-23T09:54:41.202Z,103172.34
2019-02-23T09:57:10.722Z,103179.37
2019-02-23T09:59:40.467Z,103181.66
2019-02-23T10:02:10.015Z,103182.63
2019-02-23T10:04:41.832Z,103181.86
2019-02-23T10:07:11.339Z,103182.31
2019-02-23T10:09:40.920Z,103167.55
2019-02-23T10:12:10.477Z,103168.91
2019-02-23T10:14:41.359Z,103165.49
2019-02-23T10:17:11.518Z,103159.54
2019-02-23T10:19:41.065Z,103162.18
2019-02-23T10:22:10.643Z,103158.73
2019-02-23T10:24:40.200Z,103156.59
2019-02-23T10:27:11.241Z,103157.06
2019-02-23T10:29:41.550Z,103154.05
2019-02-23T10:32:11.076Z,103149.28
2019-02-23T10:34:40.629Z,103154.05
2019-02-23T10:37:10.218Z,103150.59
2019-02-23T10:39:39.753Z,103154.50
2019-02-23T10:42:10.351Z,103147.98
2019-02-23T10:44:40.415Z,103149.72
2019-02-23T10:47:09.970Z,103145.81
2019-02-23T10:49:39.854Z,103144.94
2019-02-23T10:52:11.012Z,103138.42
2019-02-23T10:54:41.071Z,103139.27
2019-02-23T10:57:11.556Z,103134.51
2019-02-23T10:59:41.876Z,103131.47
2019-02-23T11:02:12.452Z,103139.30
2019-02-23T11:04:42.768Z,103129.72
2019-02-23T11:07:14.591Z,103119.28
2019-02-23T11:09:45.068Z,103116.67
2019-02-23T11:12:15.408Z,103109.70
2019-02-23T11:14:45.533Z,103101.88
2019-02-23T11:17:15.926Z,103091.84
2019-02-23T11:19:48.141Z,103090.97
2019-02-23T11:22:19.072Z,103079.23
2019-02-23T11:24:49.955Z,103071.81
2019-02-23T11:27:21.975Z,103074.41
2019-02-23T11:29:52.042Z,103056.14
2019-02-23T11:32:21.935Z,103047.41
2019-02-23T11:34:52.509Z,103043.92
2019-02-23T11:37:22.399Z,103036.48
2019-02-23T11:39:52.855Z,103027.30
2019-02-23T11:42:22.780Z,103023.37
2019-02-23T11:44:52.611Z,103012.87
2019-02-23T11:47:22.129Z,103013.30
2019-02-23T11:49:51.717Z,103011.95
2019-02-23T11:52:21.736Z,103006.64
2019-02-23T11:54:51.278Z,103001.78
2019-02-23T11:57:20.945Z,103011.75
2019-02-23T11:59:51.888Z,103015.17
2019-02-23T12:02:23.354Z,103015.56
2019-02-23T12:04:56.023Z,103015.98
2019-02-23T12:07:25.823Z,103014.20
2019-02-23T12:09:55.641Z,103018.90
2019-02-23T12:12:25.281Z,103014.88
2019-02-23T12:14:55.625Z,103018.34
2019-02-23T12:17:25.875Z,103023.08
2019-02-23T12:19:58.909Z,103018.26
2019-02-23T12:22:28.580Z,103019.52
2019-02-23T12:24:58.625Z,103012.19
2019-02-23T12:27:28.574Z,103016.48
2019-02-23T12:29:58.100Z,103019.11
2019-02-23T12:32:31.079Z,103019.46
2019-02-23T12:35:00.760Z,103020.33
2019-02-23T12:37:30.326Z,103019.84
2019-02-23T12:39:59.896Z,103014.55
2019-02-23T12:42:34.277Z,103011.03
2019-02-23T12:45:04.150Z,103010.16
2019-02-23T12:47:35.016Z,103001.88
2019-02-23T12:50:06.979Z,103001.87
2019-02-23T12:52:36.670Z,103000.53
2019-02-23T12:55:11.132Z,102991.77
2019-02-23T12:57:43.084Z,102983.42
2019-02-23T13:00:19.534Z,102981.14
2019-02-23T13:02:49.578Z,102980.67
2019-02-23T13:05:20.278Z,102982.38
2019-02-23T13:07:50.146Z,102975.37
2019-02-23T13:10:19.907Z,102974.50
2019-02-23T13:13:06.250Z,102973.19
2019-02-23T13:15:58.326Z,102965.77
2019-02-23T13:19:06.363Z,102959.26
2019-02-23T13:21:57.108Z,102951.87
2019-02-23T13:24:50.675Z,102954.02
2019-02-23T13:27:36.100Z,102951.37
2019-02-23T13:30:25.247Z,102945.19
2019-02-23T13:33:17.662Z,102950.34
2019-02-23T13:36:16.116Z,102946.78
2019-02-23T13:38:53.752Z,102950.31
2019-02-23T13:41:57.805Z,102949.36
2019-02-23T13:44:59.336Z,102948.49
2019-02-23T13:47:54.571Z,102948.09
2019-02-23T13:50:50.028Z,102936.70
2019-02-23T13:53:35.935Z,102951.43
2019-02-23T13:56:25.072Z,102937.89
2019-02-23T13:59:29.050Z,102937.50
2019-02-23T14:02:31.403Z,102941.43
2019-02-23T14:05:17.374Z,102937.90
2019-02-23T14:08:08.081Z,102944.88
2019-02-23T14:10:53.926Z,102942.73
2019-02-23T14:13:57.007Z,102943.21
2019-02-23T14:16:33.970Z,102942.78
2019-02-23T14:19:08.731Z,102944.17
2019-02-23T14:21:54.803Z,102942.45
2019-02-23T14:24:54.694Z,102943.33
2019-02-23T14:27:34.451Z,102942.93
2019-02-23T14:30:29.797Z,102937.69
2019-02-23T14:33:34.440Z,102944.20
2019-02-23T14:36:11.705Z,102942.09
2019-02-23T14:39:15.071Z,102937.33
2019-02-23T14:41:58.546Z,102932.86
2019-02-23T14:45:09.334Z,102935.11
2019-02-23T14:47:56.645Z,102935.98
2019-02-23T14:51:03.873Z,102933.80
2019-02-23T14:53:54.745Z,102945.52
2019-02-23T14:56:52.764Z,102949.48
2019-02-23T14:59:41.528Z,102946.90
2019-02-23T15:02:42.678Z,102947.37
2019-02-23T15:05:33.797Z,102945.22
2019-02-23T15:08:40.841Z,102953.48
2019-02-23T15:11:35.787Z,102956.13
2019-02-23T15:14:26.134Z,102948.79
2019-02-23T15:17:28.393Z,102953.19
2019-02-23T15:20:27.690Z,102956.24
2019-02-23T15:23:32.375Z,102959.40
2019-02-23T15:26:27.305Z,102951.08
2019-02-23T15:29:16.466Z,102952.92
2019-02-23T15:32:08.884Z,102956.88
2019-02-23T15:35:11.364Z,102954.67
2019-02-23T15:38:24.644Z,102947.63
2019-02-23T15:41:38.475Z,102949.37
2019-02-23T15:44:21.585Z,102953.39
2019-02-23T15:47:01.138Z,102954.27
2019-02-23T15:49:32.524Z,102946.45
2019-02-23T15:52:04.214Z,102942.09
2019-02-23T15:54:36.598Z,102951.22
2019-02-23T15:57:06.446Z,102949.91
2019-02-23T15:59:36.104Z,102951.22
2019-02-23T16:02:06.103Z,102953.86
2019-02-23T16:04:36.794Z,102953.56
2019-02-23T16:07:06.796Z,102948.80
2019-02-23T16:09:37.504Z,102945.37
2019-02-23T16:12:07.359Z,102946.67
2019-02-23T16:14:36.945Z,102943.19
2019-02-23T16:17:07.094Z,102942.34
2019-02-23T16:19:37.002Z,102943.25
2019-02-23T16:22:07.142Z,102937.27
2019-02-23T16:24:36.663Z,102954.24
2019-02-23T16:27:06.832Z,102947.70
2019-02-23T16:29:38.937Z,102954.27
2019-02-23T16:32:08.690Z,102948.20
2019-02-23T16:34:39.813Z,102952.17
2019-02-23T16:37:11.758Z,102953.53
2019-02-23T16:39:41.886Z,102959.23
2019-02-23T16:42:11.917Z,102956.20
2019-02-23T16:44:43.914Z,102964.08
2019-02-23T16:47:13.586Z,102962.80
2019-02-23T16:49:43.594Z,102965.44
2019-02-23T16:52:13.095Z,102971.98
2019-02-23T16:54:42.709Z,102971.63
2019-02-23T16:57:12.710Z,102974.72
2019-02-23T16:59:42.230Z,102978.69
2019-02-23T17:02:11.798Z,102989.16
2019-02-23T17:04:52.752Z,102985.70
2019-02-23T17:07:12.730Z,102983.16
2019-02-23T17:09:43.323Z,102991.45
2019-02-23T17:12:12.928Z,102984.55
2019-02-23T17:14:42.448Z,102985.89
2019-02-23T17:17:12.986Z,102977.21
2019-02-23T17:19:42.587Z,102979.84
2019-02-23T17:22:12.172Z,102973.34
2019-02-23T17:24:41.693Z,102978.98
2019-02-23T17:27:11.515Z,102973.33
2019-02-23T17:29:41.101Z,102980.75
2019-02-23T17:32:10.795Z,102979.86
2019-02-23T17:34:40.315Z,102980.32
2019-02-23T17:37:09.886Z,102986.91
2019-02-23T17:39:40.340Z,102985.61
2019-02-23T17:42:10.529Z,102986.51
2019-02-23T17:44:40.571Z,102983.06
2019-02-23T17:47:10.517Z,102978.27
2019-02-23T17:49:40.506Z,102982.23
2019-02-23T17:52:10.442Z,102984.00
2019-02-23T17:54:40.420Z,102985.33
2019-02-23T17:57:10.475Z,102987.53
2019-02-23T17:59:40.450Z,102995.83
2019-02-23T18:02:11.215Z,102986.28
2019-02-23T18:04:42.361Z,102986.30
2019-02-23T18:07:11.898Z,102988.92
2019-02-23T18:09:41.423Z,102987.19
2019-02-23T18:12:10.982Z,102982.41
2019-02-23T18:14:40.551Z,102991.55
2019-02-23T18:17:10.204Z,102989.39
2019-02-23T18:19:39.761Z,102981.61
2019-02-23T18:22:09.316Z,102981.59
2019-02-23T18:24:39.314Z,102980.75
2019-02-23T18:27:09.388Z,102985.09
2019-02-23T18:29:39.360Z,102992.89
2019-02-23T18:32:09.389Z,102985.95
2019-02-23T18:34:38.971Z,102987.27
2019-02-23T18:37:08.516Z,102988.58
2019-02-23T18:39:38.054Z,102989.42
2019-02-23T18:42:09.828Z,102986.83
2019-02-23T18:44:39.369Z,102992.02
2019-02-23T18:47:08.953Z,102993.27
2019-02-23T18:49:39.795Z,102993.66
2019-02-23T18:52:11.573Z,102989.30
2019-02-23T18:54:42.457Z,102988.87
2019-02-23T18:57:12.559Z,102996.62
2019-02-23T18:59:42.144Z,102990.96
2019-02-23T19:02:11.675Z,102990.53
2019-02-23T19:04:41.491Z,102994.88
2019-02-23T19:07:11.031Z,102997.47
2019-02-23T19:09:40.593Z,102996.14
2019-02-23T19:12:10.122Z,102997.02
2019-02-23T19:14:39.679Z,102992.27
2019-02-23T19:17:09.295Z,102999.20
2019-02-23T19:19:38.881Z,102996.58
2019-02-23T19:22:08.422Z,102996.56
2019-02-23T19:24:38.027Z,102992.20
2019-02-23T19:27:07.841Z,102983.92
2019-02-23T19:29:42.229Z,102992.16
2019-02-23T19:32:11.543Z,102993.87
2019-02-23T19:34:41.106Z,102996.45
2019-02-23T19:37:10.688Z,103001.19
2019-02-23T19:39:40.249Z,103000.75
2019-02-23T19:42:09.841Z,102992.08
2019-02-23T19:44:39.391Z,102997.23
2019-02-23T19:47:10.437Z,103001.94
2019-02-23T19:49:40.010Z,103006.69
2019-02-23T19:52:09.543Z,103006.66
2019-02-23T19:54:39.088Z,103011.00
2019-02-23T19:57:08.647Z,103010.55
2019-02-23T19:59:39.409Z,103002.30
2019-02-23T20:02:08.957Z,103005.32
2019-02-23T20:04:38.522Z,103007.07
2019-02-23T20:07:08.067Z,103005.38
2019-02-23T20:09:37.629Z,103001.89
2019-02-23T20:12:07.186Z,103006.22
2019-02-23T20:14:36.765Z,103017.02
2019-02-23T20:17:06.302Z,103011.37
2019-02-23T20:19:37.551Z,103007.00
2019-02-23T20:22:07.111Z,103013.89
2019-02-23T20:24:36.637Z,103012.99
2019-02-23T20:27:06.204Z,103005.17
2019-02-23T20:29:37.090Z,103002.16
2019-02-23T20:32:06.751Z,102998.28
2019-02-23T20:34:36.563Z,103000.42
2019-02-23T20:37:06.113Z,102995.69
2019-02-23T20:39:37.128Z,103000.44
2019-02-23T20:42:07.356Z,103001.70
2019-02-23T20:44:36.924Z,103000.38
2019-02-23T20:47:06.501Z,103000.72
2019-02-23T20:49:36.137Z,103001.39
2019-02-23T20:52:05.702Z,103005.53
2019-02-23T20:54:35.289Z,103008.03
2019-02-23T20:57:08.010Z,103001.92
2019-02-23T20:59:37.766Z,103011.88
2019-02-23T21:02:07.322Z,103011.84
2019-02-23T21:04:36.878Z,103004.91
2019-02-23T21:07:09.853Z,103000.14
2019-02-23T21:09:41.509Z,103001.47
2019-02-23T21:12:13.987Z,102994.11
2019-02-23T21:14:43.801Z,102996.66
2019-02-23T21:17:13.441Z,102997.89
2019-02-23T21:19:44.867Z,102996.09
2019-02-23T21:22:14.443Z,103001.24
2019-02-23T21:24:44.005Z,102995.97
2019-02-23T21:27:14.866Z,102998.08
2019-02-23T21:29:48.217Z,102989.42
2019-02-23T21:32:19.796Z,102989.34
2019-02-23T21:34:49.583Z,102992.27
2019-02-23T21:37:23.695Z,102996.99
2019-02-23T21:39:55.414Z,103000.47
2019-02-23T21:42:28.325Z,102994.40
2019-02-23T21:44:59.642Z,103001.70
2019-02-23T21:47:30.785Z,102999.41
2019-02-23T21:50:01.849Z,103000.20
2019-02-23T21:52:31.366Z,103000.05
2019-02-23T21:55:00.983Z,102999.95
2019-02-23T21:57:32.175Z,102998.20
2019-02-23T22:00:01.885Z,103003.02
2019-02-23T22:02:31.693Z,102997.41
2019-02-23T22:05:01.266Z,102995.61
2019-02-23T22:07:31.156Z,102998.93
2019-02-23T22:10:00.685Z,102997.08
2019-02-23T22:12:31.444Z,103003.60
2019-02-23T22:15:02.319Z,102997.23
2019-02-23T22:17:32.389Z,102992.50
2019-02-23T22:20:01.947Z,102995.00
2019-02-23T22:22:31.486Z,102991.84
2019-02-23T22:25:01.050Z,102994.28
2019-02-23T22:27:31.527Z,102987.39
2019-02-23T22:30:01.209Z,102993.03
2019-02-23T22:32:30.787Z,102997.75
2019-02-23T22:35:00.630Z,102995.63
2019-02-23T22:37:30.162Z,102992.58
2019-02-23T22:39:59.703Z,102990.34
2019-02-23T22:42:29.247Z,102988.12
2019-02-23T22:44:58.788Z,102991.52
2019-02-23T22:47:28.342Z,102991.06
2019-02-23T22:49:57.886Z,102993.17
2019-02-23T22:52:27.420Z,102989.20
2019-02-23T22:54:57.011Z,102990.73
2019-02-23T22:57:26.571Z,102988.39
2019-02-23T22:59:56.127Z,102997.90
2019-02-23T23:02:25.926Z,102995.73
2019-02-23T23:04:55.465Z,102999.66
2019-02-23T23:07:26.444Z,102994.44
2019-02-23T23:09:55.990Z,102994.44
2019-02-23T23:12:25.520Z,102999.63
2019-02-23T23:14:55.076Z,103003.56
2019-02-23T23:17:25.234Z,102998.22
2019-02-23T23:19:54.772Z,102994.56
2019-02-23T23:22:24.321Z,102997.08
2019-02-23T23:24:55.187Z,102991.85
2019-02-23T23:27:24.723Z,102989.13
2019-02-23T23:29:54.277Z,102986.47
2019-02-23T23:32:23.833Z,102983.02
2019-02-23T23:34:53.374Z,102981.78
2019-02-23T23:37:22.943Z,102979.13
2019-02-23T23:39:52.486Z,102982.55
2019-02-23T23:42:22.060Z,102976.91
2019-02-23T23:44:51.624Z,102976.95
2019-02-23T23:47:21.196Z,102972.63
2019-02-23T23:49:52.352Z,102975.61
2019-02-23T23:52:21.933Z,102969.48
2019-02-23T23:54:51.478Z,102958.55
2019-02-23T23:57:21.050Z,102964.08
2019-02-23T23:59:50.563Z,102960.18
